sensor_id;sensor_type;location;lat;lon;timestamp;pressure;altitude;pressure_sealevel;temperature;humidity
21803;BME280;18591;47.080;22.214;2024-02-04T00:01:01;99844.44;;;9.69;64.52
21803;BME280;18591;47.080;22.214;2024-02-04T00:03:04;99848.84;;;9.71;64.00
21803;BME280;18591;47.080;22.214;2024-02-04T00:05:06;99842.53;;;9.72;63.97
21803;BME280;18591;47.080;22.214;2024-02-04T00:07:08;99847.94;;;9.71;64.25
21803;BME280;18591;47.080;22.214;2024-02-04T00:09:11;99845.25;;;9.71;64.18
21803;BME280;18591;47.080;22.214;2024-02-04T00:11:13;99846.16;;;9.71;64.15
21803;BME280;18591;47.080;22.214;2024-02-04T00:13:16;99841.00;;;9.64;64.50
21803;BME280;18591;47.080;22.214;2024-02-04T00:15:18;99830.19;;;9.67;64.50
21803;BME280;18591;47.080;22.214;2024-02-04T00:17:21;99826.69;;;9.63;64.41
21803;BME280;18591;47.080;22.214;2024-02-04T00:19:23;99829.38;;;9.63;64.38
21803;BME280;18591;47.080;22.214;2024-02-04T00:21:25;99831.25;;;9.61;64.49
21803;BME280;18591;47.080;22.214;2024-02-04T00:23:28;99828.56;;;9.61;64.62
21803;BME280;18591;47.080;22.214;2024-02-04T00:25:30;99830.53;;;9.54;64.47
21803;BME280;18591;47.080;22.214;2024-02-04T00:27:33;99830.50;;;9.56;64.44
21803;BME280;18591;47.080;22.214;2024-02-04T00:29:36;99844.06;;;9.51;65.16
21803;BME280;18591;47.080;22.214;2024-02-04T00:31:38;99839.56;;;9.52;64.74
21803;BME280;18591;47.080;22.214;2024-02-04T00:33:40;99839.53;;;9.53;64.58
21803;BME280;18591;47.080;22.214;2024-02-04T00:35:42;99839.44;;;9.56;64.50
21803;BME280;18591;47.080;22.214;2024-02-04T00:37:44;99837.66;;;9.55;64.61
21803;BME280;18591;47.080;22.214;2024-02-04T00:39:47;99840.41;;;9.54;64.72
21803;BME280;18591;47.080;22.214;2024-02-04T00:41:49;99846.66;;;9.53;65.06
21803;BME280;18591;47.080;22.214;2024-02-04T00:43:51;99835.06;;;9.52;64.81
21803;BME280;18591;47.080;22.214;2024-02-04T00:45:54;99836.84;;;9.53;64.61
21803;BME280;18591;47.080;22.214;2024-02-04T00:47:58;99844.91;;;9.52;64.88
21803;BME280;18591;47.080;22.214;2024-02-04T00:50:01;99851.16;;;9.52;65.06
21803;BME280;18591;47.080;22.214;2024-02-04T00:52:03;99836.84;;;9.53;65.08
21803;BME280;18591;47.080;22.214;2024-02-04T00:54:06;99837.81;;;9.51;65.19
21803;BME280;18591;47.080;22.214;2024-02-04T00:56:08;99841.41;;;9.50;64.79
21803;BME280;18591;47.080;22.214;2024-02-04T00:58:11;99837.75;;;9.52;64.98
21803;BME280;18591;47.080;22.214;2024-02-04T01:00:13;99844.94;;;9.50;64.86
21803;BME280;18591;47.080;22.214;2024-02-04T01:02:16;99840.66;;;9.45;65.12
21803;BME280;18591;47.080;22.214;2024-02-04T01:04:18;99830.75;;;9.48;65.19
21803;BME280;18591;47.080;22.214;2024-02-04T01:06:20;99834.41;;;9.44;65.16
21803;BME280;18591;47.080;22.214;2024-02-04T01:08:22;99846.72;;;9.51;65.22
21803;BME280;18591;47.080;22.214;2024-02-04T01:10:25;99822.59;;;9.51;65.39
21803;BME280;18591;47.080;22.214;2024-02-04T01:12:27;99834.09;;;9.55;64.92
21803;BME280;18591;47.080;22.214;2024-02-04T01:14:29;99839.38;;;9.58;65.27
21803;BME280;18591;47.080;22.214;2024-02-04T01:16:32;99841.06;;;9.60;65.00
21803;BME280;18591;47.080;22.214;2024-02-04T01:18:34;99831.19;;;9.63;65.04
21803;BME280;18591;47.080;22.214;2024-02-04T01:20:36;99827.63;;;9.62;64.99
21803;BME280;18591;47.080;22.214;2024-02-04T01:22:38;99827.59;;;9.64;64.73
21803;BME280;18591;47.080;22.214;2024-02-04T01:24:41;99820.47;;;9.63;64.86
21803;BME280;18591;47.080;22.214;2024-02-04T01:26:43;99816.03;;;9.62;65.15
21803;BME280;18591;47.080;22.214;2024-02-04T01:28:45;99814.47;;;9.53;65.51
21803;BME280;18591;47.080;22.214;2024-02-04T01:30:47;99814.47;;;9.53;65.48
21803;BME280;18591;47.080;22.214;2024-02-04T01:32:50;99823.66;;;9.46;65.90
21803;BME280;18591;47.080;22.214;2024-02-04T01:34:52;99817.22;;;9.51;65.48
21803;BME280;18591;47.080;22.214;2024-02-04T01:36:55;99823.44;;;9.53;65.61
21803;BME280;18591;47.080;22.214;2024-02-04T01:38:57;99817.97;;;9.56;65.33
21803;BME280;18591;47.080;22.214;2024-02-04T01:40:59;99804.59;;;9.55;65.06
21803;BME280;18591;47.080;22.214;2024-02-04T01:43:01;99809.13;;;9.53;65.17
21803;BME280;18591;47.080;22.214;2024-02-04T01:45:04;99814.41;;;9.56;65.25
21803;BME280;18591;47.080;22.214;2024-02-04T01:47:06;99810.03;;;9.53;65.11
21803;BME280;18591;47.080;22.214;2024-02-04T01:49:09;99811.88;;;9.51;65.34
21803;BME280;18591;47.080;22.214;2024-02-04T01:51:13;99803.84;;;9.50;65.55
21803;BME280;18591;47.080;22.214;2024-02-04T01:53:17;99794.06;;;9.49;65.13
21803;BME280;18591;47.080;22.214;2024-02-04T01:55:21;99810.06;;;9.52;64.72
21803;BME280;18591;47.080;22.214;2024-02-04T01:57:23;99802.97;;;9.49;65.10
21803;BME280;18591;47.080;22.214;2024-02-04T01:59:27;99800.25;;;9.51;64.81
21803;BME280;18591;47.080;22.214;2024-02-04T02:01:32;99794.06;;;9.49;64.85
21803;BME280;18591;47.080;22.214;2024-02-04T02:03:37;99803.94;;;9.47;65.23
21803;BME280;18591;47.080;22.214;2024-02-04T02:05:41;99814.72;;;9.45;65.34
21803;BME280;18591;47.080;22.214;2024-02-04T02:07:43;99819.09;;;9.48;65.21
21803;BME280;18591;47.080;22.214;2024-02-04T02:09:47;99819.19;;;9.45;64.76
21803;BME280;18591;47.080;22.214;2024-02-04T02:12:14;99825.66;;;9.37;65.34
21803;BME280;18591;47.080;22.214;2024-02-04T02:14:24;99836.38;;;9.37;65.58
21803;BME280;18591;47.080;22.214;2024-02-04T02:16:30;99833.63;;;9.41;65.14
21803;BME280;18591;47.080;22.214;2024-02-04T02:18:53;99834.50;;;9.41;65.60
21803;BME280;18591;47.080;22.214;2024-02-04T02:23:10;99837.09;;;9.44;65.31
21803;BME280;18591;47.080;22.214;2024-02-04T02:25:14;99821.03;;;9.43;64.92
21803;BME280;18591;47.080;22.214;2024-02-04T02:27:17;99814.88;;;9.41;65.52
21803;BME280;18591;47.080;22.214;2024-02-04T02:29:19;99814.88;;;9.41;65.32
21803;BME280;18591;47.080;22.214;2024-02-04T02:31:21;99814.03;;;9.38;65.53
21803;BME280;18591;47.080;22.214;2024-02-04T02:33:41;99802.44;;;9.38;65.58
21803;BME280;18591;47.080;22.214;2024-02-04T02:35:45;99798.94;;;9.34;65.44
21803;BME280;18591;47.080;22.214;2024-02-04T02:37:59;99796.34;;;9.31;66.12
21803;BME280;18591;47.080;22.214;2024-02-04T02:40:06;99787.22;;;9.38;65.68
21803;BME280;18591;47.080;22.214;2024-02-04T02:42:11;99790.00;;;9.35;65.89
21803;BME280;18591;47.080;22.214;2024-02-04T02:44:14;99782.81;;;9.36;65.86
21803;BME280;18591;47.080;22.214;2024-02-04T02:46:18;99774.13;;;9.28;65.90
21803;BME280;18591;47.080;22.214;2024-02-04T02:48:21;99780.34;;;9.28;66.23
21803;BME280;18591;47.080;22.214;2024-02-04T02:50:24;99790.03;;;9.34;65.88
21803;BME280;18591;47.080;22.214;2024-02-04T02:52:26;99785.59;;;9.33;66.39
21803;BME280;18591;47.080;22.214;2024-02-04T02:54:28;99786.47;;;9.33;66.07
21803;BME280;18591;47.080;22.214;2024-02-04T02:56:31;99789.03;;;9.38;65.69
21803;BME280;18591;47.080;22.214;2024-02-04T02:58:33;99779.19;;;9.37;65.84
21803;BME280;18591;47.080;22.214;2024-02-04T03:00:35;99785.44;;;9.37;65.76
21803;BME280;18591;47.080;22.214;2024-02-04T03:02:37;99784.63;;;9.35;66.14
21803;BME280;18591;47.080;22.214;2024-02-04T03:04:40;99779.31;;;9.32;66.36
21803;BME280;18591;47.080;22.214;2024-02-04T03:06:42;99771.25;;;9.34;65.91
21803;BME280;18591;47.080;22.214;2024-02-04T03:23:04;99771.44;;;9.28;66.20
21803;BME280;18591;47.080;22.214;2024-02-04T03:25:07;99777.72;;;9.27;66.15
21803;BME280;18591;47.080;22.214;2024-02-04T03:27:10;99775.00;;;9.28;66.26
21803;BME280;18591;47.080;22.214;2024-02-04T03:29:13;99778.59;;;9.27;66.13
21803;BME280;18591;47.080;22.214;2024-02-04T03:31:20;99766.22;;;9.23;66.23
21803;BME280;18591;47.080;22.214;2024-02-04T03:33:23;99764.41;;;9.24;66.15
21803;BME280;18591;47.080;22.214;2024-02-04T03:35:26;99769.00;;;9.20;66.67
21803;BME280;18591;47.080;22.214;2024-02-04T03:37:29;99770.72;;;9.21;66.63
21803;BME280;18591;47.080;22.214;2024-02-04T03:39:31;99769.00;;;9.20;66.37
21803;BME280;18591;47.080;22.214;2024-02-04T03:41:34;99760.97;;;9.19;66.62
21803;BME280;18591;47.080;22.214;2024-02-04T03:43:37;99762.69;;;9.21;66.55
21803;BME280;18591;47.080;22.214;2024-02-04T03:45:40;99765.41;;;9.20;66.35
21803;BME280;18591;47.080;22.214;2024-02-04T03:47:42;99763.66;;;9.19;66.67
21803;BME280;18591;47.080;22.214;2024-02-04T03:49:46;99752.00;;;9.20;66.54
21803;BME280;18591;47.080;22.214;2024-02-04T03:51:48;99751.03;;;9.22;66.46
21803;BME280;18591;47.080;22.214;2024-02-04T03:53:51;99761.84;;;9.19;66.23
21803;BME280;18591;47.080;22.214;2024-02-04T03:55:54;99758.19;;;9.22;66.35
21803;BME280;18591;47.080;22.214;2024-02-04T03:57:57;99763.75;;;9.15;66.50
21803;BME280;18591;47.080;22.214;2024-02-04T04:00:00;99765.56;;;9.15;66.71
21803;BME280;18591;47.080;22.214;2024-02-04T04:02:13;99761.69;;;9.25;66.55
21803;BME280;18591;47.080;22.214;2024-02-04T04:04:16;99770.47;;;9.30;66.09
21803;BME280;18591;47.080;22.214;2024-02-04T04:06:19;99765.00;;;9.33;66.16
21803;BME280;18591;47.080;22.214;2024-02-04T04:08:21;99768.53;;;9.35;65.97
21803;BME280;18591;47.080;22.214;2024-02-04T04:10:24;99770.28;;;9.36;65.94
21803;BME280;18591;47.080;22.214;2024-02-04T04:12:26;99770.38;;;9.33;66.21
21803;BME280;18591;47.080;22.214;2024-02-04T04:14:29;99769.72;;;9.25;66.53
21803;BME280;18591;47.080;22.214;2024-02-04T04:16:32;99769.63;;;9.28;66.12
21803;BME280;18591;47.080;22.214;2024-02-04T04:18:34;99771.44;;;9.28;66.36
21803;BME280;18591;47.080;22.214;2024-02-04T04:20:37;99765.19;;;9.27;66.33
21803;BME280;18591;47.080;22.214;2024-02-04T04:22:40;99766.75;;;9.34;66.08
21803;BME280;18591;47.080;22.214;2024-02-04T04:24:43;99756.97;;;9.33;66.07
21803;BME280;18591;47.080;22.214;2024-02-04T04:26:45;99759.69;;;9.32;66.23
21803;BME280;18591;47.080;22.214;2024-02-04T04:28:48;99750.00;;;9.28;66.44
21803;BME280;18591;47.080;22.214;2024-02-04T04:30:50;99759.78;;;9.29;66.29
21803;BME280;18591;47.080;22.214;2024-02-04T04:32:53;99758.03;;;9.28;66.15
21803;BME280;18591;47.080;22.214;2024-02-04T04:34:55;99770.53;;;9.27;66.08
21803;BME280;18591;47.080;22.214;2024-02-04T04:36:58;99772.22;;;9.31;66.32
21803;BME280;18591;47.080;22.214;2024-02-04T04:39:01;99767.13;;;9.22;66.24
21803;BME280;18591;47.080;22.214;2024-02-04T04:41:03;99765.38;;;9.21;66.39
21803;BME280;18591;47.080;22.214;2024-02-04T04:43:06;99761.75;;;9.22;66.50
21803;BME280;18591;47.080;22.214;2024-02-04T04:45:09;99757.28;;;9.23;66.34
21803;BME280;18591;47.080;22.214;2024-02-04T04:47:15;99754.56;;;9.24;66.68
21803;BME280;18591;47.080;22.214;2024-02-04T04:49:17;99764.16;;;9.33;66.24
21803;BME280;18591;47.080;22.214;2024-02-04T04:51:20;99756.84;;;9.38;66.34
21803;BME280;18591;47.080;22.214;2024-02-04T04:53:23;99759.34;;;9.43;66.28
21803;BME280;18591;47.080;22.214;2024-02-04T04:55:26;99766.59;;;9.41;65.94
21803;BME280;18591;47.080;22.214;2024-02-04T04:57:29;99767.63;;;9.35;66.09
21803;BME280;18591;47.080;22.214;2024-02-04T04:59:31;99778.56;;;9.29;66.19
21803;BME280;18591;47.080;22.214;2024-02-04T05:01:34;99778.44;;;9.33;66.29
21803;BME280;18591;47.080;22.214;2024-02-04T05:03:36;99786.56;;;9.30;66.41
21803;BME280;18591;47.080;22.214;2024-02-04T05:05:39;99787.66;;;9.23;66.33
21803;BME280;18591;47.080;22.214;2024-02-04T05:07:42;99785.66;;;9.30;66.59
21803;BME280;18591;47.080;22.214;2024-02-04T05:09:44;99774.91;;;9.31;66.45
21803;BME280;18591;47.080;22.214;2024-02-04T05:11:48;99760.63;;;9.31;66.16
21803;BME280;18591;47.080;22.214;2024-02-04T05:13:50;99768.56;;;9.34;65.99
21803;BME280;18591;47.080;22.214;2024-02-04T05:15:53;99761.59;;;9.28;66.33
21803;BME280;18591;47.080;22.214;2024-02-04T05:17:55;99759.00;;;9.25;66.52
21803;BME280;18591;47.080;22.214;2024-02-04T05:19:58;99748.41;;;9.21;66.63
21803;BME280;18591;47.080;22.214;2024-02-04T05:22:02;99735.88;;;9.21;66.24
21803;BME280;18591;47.080;22.214;2024-02-04T05:24:05;99737.81;;;9.16;66.51
21803;BME280;18591;47.080;22.214;2024-02-04T05:26:08;99734.22;;;9.17;66.69
21803;BME280;18591;47.080;22.214;2024-02-04T05:28:10;99743.88;;;9.23;66.82
21803;BME280;18591;47.080;22.214;2024-02-04T05:30:13;99765.13;;;9.30;66.36
21803;BME280;18591;47.080;22.214;2024-02-04T05:32:16;99778.53;;;9.30;66.29
21803;BME280;18591;47.080;22.214;2024-02-04T05:34:18;99770.50;;;9.29;66.20
21803;BME280;18591;47.080;22.214;2024-02-04T05:36:21;99766.97;;;9.28;66.41
21803;BME280;18591;47.080;22.214;2024-02-04T05:38:24;99768.59;;;9.32;66.26
21803;BME280;18591;47.080;22.214;2024-02-04T05:40:26;99778.66;;;9.26;66.61
21803;BME280;18591;47.080;22.214;2024-02-04T05:42:29;99776.84;;;9.26;66.08
21803;BME280;18591;47.080;22.214;2024-02-04T05:44:33;99779.47;;;9.28;66.10
21803;BME280;18591;47.080;22.214;2024-02-04T05:46:38;99774.88;;;9.33;66.10
21803;BME280;18591;47.080;22.214;2024-02-04T05:48:41;99772.97;;;9.36;66.14
21803;BME280;18591;47.080;22.214;2024-02-04T05:50:46;99779.16;;;9.38;65.95
21803;BME280;18591;47.080;22.214;2024-02-04T05:52:49;99780.03;;;9.39;65.75
21803;BME280;18591;47.080;22.214;2024-02-04T05:54:52;99769.31;;;9.39;65.71
21803;BME280;18591;47.080;22.214;2024-02-04T05:56:54;99768.66;;;9.31;66.25
21803;BME280;18591;47.080;22.214;2024-02-04T05:58:57;99756.16;;;9.30;65.98
21803;BME280;18591;47.080;22.214;2024-02-04T06:00:59;99771.22;;;9.35;65.69
21803;BME280;18591;47.080;22.214;2024-02-04T06:03:02;99779.25;;;9.35;65.94
21803;BME280;18591;47.080;22.214;2024-02-04T06:05:05;99772.97;;;9.36;65.70
21803;BME280;18591;47.080;22.214;2024-02-04T06:07:08;99764.91;;;9.36;65.56
21803;BME280;18591;47.080;22.214;2024-02-04T06:09:10;99765.78;;;9.37;65.88
21803;BME280;18591;47.080;22.214;2024-02-04T06:11:13;99769.41;;;9.36;65.50
21803;BME280;18591;47.080;22.214;2024-02-04T06:13:16;99761.41;;;9.34;65.68
21803;BME280;18591;47.080;22.214;2024-02-04T06:15:18;99772.03;;;9.37;65.59
21803;BME280;18591;47.080;22.214;2024-02-04T06:17:23;99789.91;;;9.38;65.50
21803;BME280;18591;47.080;22.214;2024-02-04T06:19:25;99784.63;;;9.35;65.25
21803;BME280;18591;47.080;22.214;2024-02-04T06:21:28;99795.50;;;9.29;65.76
21803;BME280;18591;47.080;22.214;2024-02-04T06:23:31;99811.50;;;9.32;65.85
21803;BME280;18591;47.080;22.214;2024-02-04T06:25:34;99818.72;;;9.30;65.71
21803;BME280;18591;47.080;22.214;2024-02-04T06:27:36;99803.41;;;9.35;65.98
21803;BME280;18591;47.080;22.214;2024-02-04T06:29:39;99797.06;;;9.38;65.47
21803;BME280;18591;47.080;22.214;2024-02-04T06:31:44;99789.91;;;9.37;65.53
21803;BME280;18591;47.080;22.214;2024-02-04T06:33:47;99788.91;;;9.41;65.67
21803;BME280;18591;47.080;22.214;2024-02-04T06:35:50;99788.19;;;9.36;65.90
21803;BME280;18591;47.080;22.214;2024-02-04T06:37:53;99794.41;;;9.36;65.80
21803;BME280;18591;47.080;22.214;2024-02-04T06:39:56;99787.09;;;9.43;65.72
21803;BME280;18591;47.080;22.214;2024-02-04T06:41:58;99779.09;;;9.40;65.55
21803;BME280;18591;47.080;22.214;2024-02-04T06:44:03;99786.38;;;9.36;65.83
21803;BME280;18591;47.080;22.214;2024-02-04T06:46:06;99795.34;;;9.35;65.69
21803;BME280;18591;47.080;22.214;2024-02-04T06:48:09;99808.75;;;9.35;65.56
21803;BME280;18591;47.080;22.214;2024-02-04T06:50:12;99804.28;;;9.34;65.68
21803;BME280;18591;47.080;22.214;2024-02-04T06:52:16;99806.09;;;9.34;66.19
21803;BME280;18591;47.080;22.214;2024-02-04T06:54:19;99808.75;;;9.35;65.85
21803;BME280;18591;47.080;22.214;2024-02-04T06:56:22;99804.28;;;9.34;66.03
21803;BME280;18591;47.080;22.214;2024-02-04T06:58:24;99807.94;;;9.32;65.99
21803;BME280;18591;47.080;22.214;2024-02-04T07:00:27;99811.50;;;9.32;66.20
21803;BME280;18591;47.080;22.214;2024-02-04T07:02:29;99807.91;;;9.33;65.64
21803;BME280;18591;47.080;22.214;2024-02-04T07:04:32;99817.78;;;9.33;65.72
21803;BME280;18591;47.080;22.214;2024-02-04T07:06:34;99816.84;;;9.34;65.98
21803;BME280;18591;47.080;22.214;2024-02-04T07:08:37;99827.56;;;9.34;65.71
21803;BME280;18591;47.080;22.214;2024-02-04T07:10:39;99834.63;;;9.36;65.61
21803;BME280;18591;47.080;22.214;2024-02-04T07:12:42;99845.25;;;9.40;65.96
21803;BME280;18591;47.080;22.214;2024-02-04T07:14:46;99842.66;;;9.38;65.90
21803;BME280;18591;47.080;22.214;2024-02-04T07:16:48;99840.84;;;9.38;65.69
21803;BME280;18591;47.080;22.214;2024-02-04T07:18:51;99840.72;;;9.43;65.76
21803;BME280;18591;47.080;22.214;2024-02-04T07:20:54;99855.03;;;9.42;65.63
21803;BME280;18591;47.080;22.214;2024-02-04T07:22:56;99849.63;;;9.44;66.01
21803;BME280;18591;47.080;22.214;2024-02-04T07:24:58;99855.78;;;9.47;65.80
21803;BME280;18591;47.080;22.214;2024-02-04T07:27:01;99859.50;;;9.43;66.02
21803;BME280;18591;47.080;22.214;2024-02-04T07:29:04;99854.78;;;9.51;65.92
21803;BME280;18591;47.080;22.214;2024-02-04T07:31:07;99860.03;;;9.54;66.05
21803;BME280;18591;47.080;22.214;2024-02-04T07:33:09;99853.75;;;9.55;66.35
21803;BME280;18591;47.080;22.214;2024-02-04T07:35:12;99860.00;;;9.56;66.21
21803;BME280;18591;47.080;22.214;2024-02-04T07:37:15;99860.59;;;9.66;65.98
21803;BME280;18591;47.080;22.214;2024-02-04T07:39:19;99858.66;;;9.71;65.84
21803;BME280;18591;47.080;22.214;2024-02-04T07:41:23;99855.91;;;9.74;66.12
21803;BME280;18591;47.080;22.214;2024-02-04T07:43:26;99859.28;;;9.80;66.06
21803;BME280;18591;47.080;22.214;2024-02-04T07:45:28;99854.28;;;9.98;66.09
21803;BME280;18591;47.080;22.214;2024-02-04T07:47:35;99858.34;;;10.11;66.24
21803;BME280;18591;47.080;22.214;2024-02-04T07:49:38;99849.72;;;10.30;65.99
21803;BME280;18591;47.080;22.214;2024-02-04T07:51:41;99842.22;;;10.41;65.83
21803;BME280;18591;47.080;22.214;2024-02-04T07:53:44;99842.78;;;10.51;65.68
21803;BME280;18591;47.080;22.214;2024-02-04T07:55:48;99843.50;;;10.56;65.13
21803;BME280;18591;47.080;22.214;2024-02-04T07:57:52;99841.53;;;10.61;65.09
21803;BME280;18591;47.080;22.214;2024-02-04T07:59:55;99840.78;;;10.57;64.62
21803;BME280;18591;47.080;22.214;2024-02-04T08:01:59;99843.47;;;10.57;64.82
21803;BME280;18591;47.080;22.214;2024-02-04T08:04:02;99843.72;;;10.50;64.43
21803;BME280;18591;47.080;22.214;2024-02-04T08:06:08;99835.56;;;10.53;64.43
21803;BME280;18591;47.080;22.214;2024-02-04T08:08:11;99845.53;;;10.49;64.53
21803;BME280;18591;47.080;22.214;2024-02-04T08:10:17;99851.00;;;10.46;64.80
21803;BME280;18591;47.080;22.214;2024-02-04T08:12:21;99858.22;;;10.44;64.80
21803;BME280;18591;47.080;22.214;2024-02-04T08:14:23;99847.84;;;10.33;64.69
21803;BME280;18591;47.080;22.214;2024-02-04T08:16:27;99839.66;;;10.38;64.72
21803;BME280;18591;47.080;22.214;2024-02-04T08:18:32;99831.63;;;10.36;64.89
21803;BME280;18591;47.080;22.214;2024-02-04T08:20:35;99838.75;;;10.37;65.09
21803;BME280;18591;47.080;22.214;2024-02-04T08:22:41;99836.75;;;10.44;64.93
21803;BME280;18591;47.080;22.214;2024-02-04T08:24:44;99834.66;;;10.54;64.84
21803;BME280;18591;47.080;22.214;2024-02-04T08:26:47;99831.88;;;10.55;64.68
21803;BME280;18591;47.080;22.214;2024-02-04T08:28:50;99833.47;;;10.61;64.83
21803;BME280;18591;47.080;22.214;2024-02-04T08:30:55;99827.34;;;10.57;64.67
21803;BME280;18591;47.080;22.214;2024-02-04T08:32:58;99823.78;;;10.57;64.62
21803;BME280;18591;47.080;22.214;2024-02-04T08:35:01;99838.06;;;10.59;64.43
21803;BME280;18591;47.080;22.214;2024-02-04T08:37:04;99833.44;;;10.62;64.72
21803;BME280;18591;47.080;22.214;2024-02-04T08:39:07;99830.00;;;10.59;64.63
21803;BME280;18591;47.080;22.214;2024-02-04T08:41:10;99830.88;;;10.59;64.55
21803;BME280;18591;47.080;22.214;2024-02-04T08:43:13;99830.72;;;10.64;64.51
21803;BME280;18591;47.080;22.214;2024-02-04T08:45:16;99836.03;;;10.65;64.56
21803;BME280;18591;47.080;22.214;2024-02-04T08:47:19;99833.59;;;10.58;64.42
21803;BME280;18591;47.080;22.214;2024-02-04T08:49:22;99840.56;;;10.63;64.40
21803;BME280;18591;47.080;22.214;2024-02-04T08:51:25;99828.75;;;10.69;64.30
21803;BME280;18591;47.080;22.214;2024-02-04T08:53:32;99826.94;;;10.70;64.05
21803;BME280;18591;47.080;22.214;2024-02-04T08:55:35;99843.97;;;10.68;64.29
21803;BME280;18591;47.080;22.214;2024-02-04T08:57:38;99851.16;;;10.68;64.20
21803;BME280;18591;47.080;22.214;2024-02-04T08:59:41;99847.34;;;10.75;64.21
21803;BME280;18591;47.080;22.214;2024-02-04T09:01:44;99850.75;;;10.80;64.32
21803;BME280;18591;47.080;22.214;2024-02-04T09:03:48;99853.41;;;10.82;64.68
21803;BME280;18591;47.080;22.214;2024-02-04T09:05:51;99858.78;;;10.82;65.29
21803;BME280;18591;47.080;22.214;2024-02-04T09:07:54;99847.84;;;10.86;65.39
21803;BME280;18591;47.080;22.214;2024-02-04T09:10:01;99840.34;;;10.96;65.08
21803;BME280;18591;47.080;22.214;2024-02-04T09:12:04;99839.91;;;11.08;64.93
21803;BME280;18591;47.080;22.214;2024-02-04T09:14:08;99847.75;;;11.15;64.43
21803;BME280;18591;47.080;22.214;2024-02-04T09:16:11;99845.91;;;11.17;64.27
21803;BME280;18591;47.080;22.214;2024-02-04T09:18:14;99834.81;;;11.26;64.57
21803;BME280;18591;47.080;22.214;2024-02-04T09:20:17;99831.47;;;11.19;64.47
21803;BME280;18591;47.080;22.214;2024-02-04T09:22:20;99829.44;;;11.26;63.58
21803;BME280;18591;47.080;22.214;2024-02-04T09:24:23;99834.03;;;11.22;64.01
21803;BME280;18591;47.080;22.214;2024-02-04T09:26:26;99843.06;;;11.21;63.68
21803;BME280;18591;47.080;22.214;2024-02-04T09:28:32;99834.09;;;11.21;63.71
21803;BME280;18591;47.080;22.214;2024-02-04T09:30:35;99836.69;;;11.24;64.11
21803;BME280;18591;47.080;22.214;2024-02-04T09:32:39;99825.88;;;11.25;64.13
21803;BME280;18591;47.080;22.214;2024-02-04T09:34:42;99824.88;;;11.28;64.18
21803;BME280;18591;47.080;22.214;2024-02-04T09:36:46;99822.94;;;11.31;64.18
21803;BME280;18591;47.080;22.214;2024-02-04T09:38:49;99824.41;;;11.40;63.81
21803;BME280;18591;47.080;22.214;2024-02-04T09:40:52;99822.78;;;11.36;63.31
21803;BME280;18591;47.080;22.214;2024-02-04T09:42:59;99822.78;;;11.36;63.20
21803;BME280;18591;47.080;22.214;2024-02-04T09:45:04;99835.97;;;11.44;63.54
21803;BME280;18591;47.080;22.214;2024-02-04T09:47:07;99838.56;;;11.45;63.83
21803;BME280;18591;47.080;22.214;2024-02-04T09:49:12;99833.97;;;11.49;63.57
21803;BME280;18591;47.080;22.214;2024-02-04T09:51:16;99826.72;;;11.51;63.70
21803;BME280;18591;47.080;22.214;2024-02-04T09:53:22;99816.31;;;11.42;63.42
21803;BME280;18591;47.080;22.214;2024-02-04T09:55:29;99816.06;;;11.48;63.59
21803;BME280;18591;47.080;22.214;2024-02-04T09:57:34;99804.31;;;11.50;63.80
21803;BME280;18591;47.080;22.214;2024-02-04T09:59:37;99803.25;;;11.54;63.75
21803;BME280;18591;47.080;22.214;2024-02-04T10:01:41;99804.50;;;11.46;63.81
21803;BME280;18591;47.080;22.214;2024-02-04T10:03:47;99807.78;;;11.54;63.78
21803;BME280;18591;47.080;22.214;2024-02-04T10:05:50;99787.06;;;11.56;63.60
21803;BME280;18591;47.080;22.214;2024-02-04T10:07:53;99787.06;;;11.56;63.04
21803;BME280;18591;47.080;22.214;2024-02-04T10:09:56;99784.31;;;11.58;63.56
21803;BME280;18591;47.080;22.214;2024-02-04T10:11:59;99775.25;;;11.60;63.23
21803;BME280;18591;47.080;22.214;2024-02-04T10:14:06;99783.47;;;11.55;63.11
21803;BME280;18591;47.080;22.214;2024-02-04T10:16:09;99784.38;;;11.56;63.46
21803;BME280;18591;47.080;22.214;2024-02-04T10:18:12;99772.91;;;11.51;63.96
21803;BME280;18591;47.080;22.214;2024-02-04T10:20:15;99778.88;;;11.59;63.32
21803;BME280;18591;47.080;22.214;2024-02-04T10:22:22;99765.59;;;11.54;63.75
21803;BME280;18591;47.080;22.214;2024-02-04T10:24:25;99771.81;;;11.57;63.59
21803;BME280;18591;47.080;22.214;2024-02-04T10:26:31;99764.72;;;11.54;63.34
21803;BME280;18591;47.080;22.214;2024-02-04T10:28:37;99772.03;;;11.50;63.75
21803;BME280;18591;47.080;22.214;2024-02-04T10:30:41;99772.72;;;11.55;63.65
21803;BME280;18591;47.080;22.214;2024-02-04T10:32:44;99775.53;;;11.52;64.08
21803;BME280;18591;47.080;22.214;2024-02-04T10:34:48;99765.63;;;11.53;63.81
21803;BME280;18591;47.080;22.214;2024-02-04T10:36:51;99763.84;;;11.53;63.78
21803;BME280;18591;47.080;22.214;2024-02-04T10:38:54;99741.25;;;11.58;64.08
21803;BME280;18591;47.080;22.214;2024-02-04T10:41:00;99736.66;;;11.61;63.95
21803;BME280;18591;47.080;22.214;2024-02-04T10:43:06;99727.66;;;11.61;63.71
21803;BME280;18591;47.080;22.214;2024-02-04T10:45:11;99723.97;;;11.63;63.83
21803;BME280;18591;47.080;22.214;2024-02-04T10:47:33;99733.06;;;11.61;63.69
21803;BME280;18591;47.080;22.214;2024-02-04T10:49:40;99723.38;;;11.57;63.85
21803;BME280;18591;47.080;22.214;2024-02-04T10:51:50;99723.19;;;11.61;64.08
21803;BME280;18591;47.080;22.214;2024-02-04T10:53:54;99720.72;;;11.55;64.29
21803;BME280;18591;47.080;22.214;2024-02-04T10:56:02;99719.69;;;11.59;64.28
21803;BME280;18591;47.080;22.214;2024-02-04T10:58:06;99724.88;;;11.64;64.33
21803;BME280;18591;47.080;22.214;2024-02-04T11:00:13;99729.44;;;11.62;64.62
21803;BME280;18591;47.080;22.214;2024-02-04T11:02:16;99719.59;;;11.61;64.65
21803;BME280;18591;47.080;22.214;2024-02-04T11:04:20;99726.38;;;11.71;64.02
21803;BME280;18591;47.080;22.214;2024-02-04T11:06:23;99724.47;;;11.74;64.19
21803;BME280;18591;47.080;22.214;2024-02-04T11:08:26;99717.25;;;11.75;64.24